sensor_id;sensor_type;location;lat;lon;timestamp;P1;durP1;ratioP1;P2;durP2;ratioP2
65463;SDS011;52063;45.110;9.870;2023-02-27T00:01:55;6.07;;;4.07;;
65463;SDS011;52063;45.110;9.870;2023-02-27T00:04:21;6.43;;;4.03;;
65463;SDS011;52063;45.110;9.870;2023-02-27T00:06:46;6.40;;;3.60;;
65463;SDS011;52063;45.110;9.870;2023-02-27T00:09:12;4.18;;;3.53;;
65463;SDS011;52063;45.110;9.870;2023-02-27T00:11:37;5.03;;;3.90;;
65463;SDS011;52063;45.110;9.870;2023-02-27T00:14:03;5.77;;;3.80;;
65463;SDS011;52063;45.110;9.870;2023-02-27T00:16:28;5.82;;;3.50;;
65463;SDS011;52063;45.110;9.870;2023-02-27T00:18:54;5.60;;;3.53;;
65463;SDS011;52063;45.110;9.870;2023-02-27T00:21:21;5.28;;;4.10;;
65463;SDS011;52063;45.110;9.870;2023-02-27T00:23:47;5.27;;;3.70;;
65463;SDS011;52063;45.110;9.870;2023-02-27T00:26:13;4.53;;;3.53;;
65463;SDS011;52063;45.110;9.870;2023-02-27T00:28:39;4.85;;;3.63;;
65463;SDS011;52063;45.110;9.870;2023-02-27T00:31:04;4.23;;;3.37;;
65463;SDS011;52063;45.110;9.870;2023-02-27T00:33:30;4.77;;;3.47;;
65463;SDS011;52063;45.110;9.870;2023-02-27T00:35:59;4.28;;;3.60;;
65463;SDS011;52063;45.110;9.870;2023-02-27T00:38:26;3.97;;;3.30;;
65463;SDS011;52063;45.110;9.870;2023-02-27T00:40:51;4.55;;;3.40;;
65463;SDS011;52063;45.110;9.870;2023-02-27T00:43:17;5.43;;;3.20;;
65463;SDS011;52063;45.110;9.870;2023-02-27T00:45:42;3.83;;;3.35;;
65463;SDS011;52063;45.110;9.870;2023-02-27T00:48:08;4.20;;;3.30;;
65463;SDS011;52063;45.110;9.870;2023-02-27T00:50:33;4.37;;;3.40;;
65463;SDS011;52063;45.110;9.870;2023-02-27T00:52:59;4.87;;;3.20;;
65463;SDS011;52063;45.110;9.870;2023-02-27T00:55:24;3.80;;;3.00;;
65463;SDS011;52063;45.110;9.870;2023-02-27T00:57:50;4.87;;;3.43;;
65463;SDS011;52063;45.110;9.870;2023-02-27T01:00:15;4.30;;;3.20;;
65463;SDS011;52063;45.110;9.870;2023-02-27T01:02:41;4.13;;;2.90;;
65463;SDS011;52063;45.110;9.870;2023-02-27T01:05:06;6.20;;;3.30;;
65463;SDS011;52063;45.110;9.870;2023-02-27T01:07:32;4.63;;;3.05;;
65463;SDS011;52063;45.110;9.870;2023-02-27T01:09:59;4.30;;;3.00;;
65463;SDS011;52063;45.110;9.870;2023-02-27T01:12:26;4.65;;;3.45;;
65463;SDS011;52063;45.110;9.870;2023-02-27T01:14:51;3.47;;;3.10;;
65463;SDS011;52063;45.110;9.870;2023-02-27T01:17:17;4.47;;;3.53;;
65463;SDS011;52063;45.110;9.870;2023-02-27T01:19:42;4.25;;;2.97;;
65463;SDS011;52063;45.110;9.870;2023-02-27T01:22:08;3.20;;;2.90;;
65463;SDS011;52063;45.110;9.870;2023-02-27T01:24:33;4.13;;;2.93;;
65463;SDS011;52063;45.110;9.870;2023-02-27T01:26:59;4.27;;;3.07;;
65463;SDS011;52063;45.110;9.870;2023-02-27T01:29:24;4.33;;;2.87;;
65463;SDS011;52063;45.110;9.870;2023-02-27T01:31:50;3.77;;;2.90;;
65463;SDS011;52063;45.110;9.870;2023-02-27T01:34:15;3.63;;;3.00;;
65463;SDS011;52063;45.110;9.870;2023-02-27T01:36:41;3.20;;;2.40;;
65463;SDS011;52063;45.110;9.870;2023-02-27T01:39:07;4.17;;;2.90;;
65463;SDS011;52063;45.110;9.870;2023-02-27T01:41:32;4.57;;;2.67;;
65463;SDS011;52063;45.110;9.870;2023-02-27T01:44:04;3.30;;;2.80;;
65463;SDS011;52063;45.110;9.870;2023-02-27T01:46:35;4.32;;;3.03;;
65463;SDS011;52063;45.110;9.870;2023-02-27T01:49:03;4.53;;;3.15;;
65463;SDS011;52063;45.110;9.870;2023-02-27T01:51:36;4.73;;;2.70;;
65463;SDS011;52063;45.110;9.870;2023-02-27T01:54:05;3.25;;;2.95;;
65463;SDS011;52063;45.110;9.870;2023-02-27T01:56:32;3.72;;;2.80;;
65463;SDS011;52063;45.110;9.870;2023-02-27T01:59:05;3.60;;;2.60;;
65463;SDS011;52063;45.110;9.870;2023-02-27T02:01:33;3.25;;;2.88;;
65463;SDS011;52063;45.110;9.870;2023-02-27T02:04:05;3.33;;;2.40;;
65463;SDS011;52063;45.110;9.870;2023-02-27T02:06:35;3.40;;;2.55;;
65463;SDS011;52063;45.110;9.870;2023-02-27T02:09:04;3.20;;;2.70;;
65463;SDS011;52063;45.110;9.870;2023-02-27T02:11:30;2.90;;;2.60;;
65463;SDS011;52063;45.110;9.870;2023-02-27T02:13:56;3.42;;;2.75;;
65463;SDS011;52063;45.110;9.870;2023-02-27T02:28:10;6.82;;;3.38;;
65463;SDS011;52063;45.110;9.870;2023-02-27T02:41:58;4.75;;;2.42;;
65463;SDS011;52063;45.110;9.870;2023-02-27T02:44:33;2.83;;;2.42;;
65463;SDS011;52063;45.110;9.870;2023-02-27T02:47:04;2.60;;;2.10;;
65463;SDS011;52063;45.110;9.870;2023-02-27T02:49:48;2.60;;;2.40;;
65463;SDS011;52063;45.110;9.870;2023-02-27T02:52:48;2.70;;;2.22;;
65463;SDS011;52063;45.110;9.870;2023-02-27T02:58:13;4.18;;;2.40;;
65463;SDS011;52063;45.110;9.870;2023-02-27T03:00:47;2.40;;;2.13;;
65463;SDS011;52063;45.110;9.870;2023-02-27T03:03:30;2.40;;;1.97;;
65463;SDS011;52063;45.110;9.870;2023-02-27T03:06:01;3.38;;;2.17;;
65463;SDS011;52063;45.110;9.870;2023-02-27T03:08:31;4.75;;;2.35;;
65463;SDS011;52063;45.110;9.870;2023-02-27T03:10:59;2.50;;;2.08;;
65463;SDS011;52063;45.110;9.870;2023-02-27T03:13:30;2.25;;;2.05;;
65463;SDS011;52063;45.110;9.870;2023-02-27T03:16:10;2.43;;;1.90;;
65463;SDS011;52063;45.110;9.870;2023-02-27T03:21:41;3.40;;;1.85;;
65463;SDS011;52063;45.110;9.870;2023-02-27T03:24:18;2.17;;;1.73;;
65463;SDS011;52063;45.110;9.870;2023-02-27T03:26:47;3.03;;;2.20;;
65463;SDS011;52063;45.110;9.870;2023-02-27T03:29:25;1.87;;;1.67;;
65463;SDS011;52063;45.110;9.870;2023-02-27T03:31:57;2.13;;;1.80;;
65463;SDS011;52063;45.110;9.870;2023-02-27T03:34:28;2.50;;;2.03;;
65463;SDS011;52063;45.110;9.870;2023-02-27T03:37:19;2.40;;;1.80;;
65463;SDS011;52063;45.110;9.870;2023-02-27T03:39:51;2.45;;;1.98;;
65463;SDS011;52063;45.110;9.870;2023-02-27T03:42:35;2.07;;;1.60;;
65463;SDS011;52063;45.110;9.870;2023-02-27T03:48:03;3.03;;;1.80;;
65463;SDS011;52063;45.110;9.870;2023-02-27T03:50:29;2.27;;;1.90;;
65463;SDS011;52063;45.110;9.870;2023-02-27T03:52:55;2.40;;;1.90;;
65463;SDS011;52063;45.110;9.870;2023-02-27T03:55:22;1.70;;;1.60;;
65463;SDS011;52063;45.110;9.870;2023-02-27T03:57:50;2.80;;;2.07;;
65463;SDS011;52063;45.110;9.870;2023-02-27T04:00:17;2.47;;;1.67;;
65463;SDS011;52063;45.110;9.870;2023-02-27T04:02:45;3.80;;;2.25;;
65463;SDS011;52063;45.110;9.870;2023-02-27T04:05:15;2.03;;;1.80;;
65463;SDS011;52063;45.110;9.870;2023-02-27T04:10:24;2.60;;;1.80;;
65463;SDS011;52063;45.110;9.870;2023-02-27T04:18:50;2.13;;;1.48;;
65463;SDS011;52063;45.110;9.870;2023-02-27T04:21:33;2.70;;;1.55;;
65463;SDS011;52063;45.110;9.870;2023-02-27T04:24:18;2.00;;;1.57;;
65463;SDS011;52063;45.110;9.870;2023-02-27T04:33:03;1.70;;;1.40;;
65463;SDS011;52063;45.110;9.870;2023-02-27T04:35:34;1.77;;;1.60;;
65463;SDS011;52063;45.110;9.870;2023-02-27T04:40:37;1.55;;;1.30;;
65463;SDS011;52063;45.110;9.870;2023-02-27T04:43:06;2.95;;;1.60;;
65463;SDS011;52063;45.110;9.870;2023-02-27T04:45:33;1.65;;;1.40;;
65463;SDS011;52063;45.110;9.870;2023-02-27T04:48:17;1.50;;;1.30;;
65463;SDS011;52063;45.110;9.870;2023-02-27T04:50:46;1.90;;;1.43;;
65463;SDS011;52063;45.110;9.870;2023-02-27T04:55:49;1.60;;;1.43;;
65463;SDS011;52063;45.110;9.870;2023-02-27T05:01:26;1.77;;;1.40;;
65463;SDS011;52063;45.110;9.870;2023-02-27T05:03:56;1.90;;;1.40;;
65463;SDS011;52063;45.110;9.870;2023-02-27T05:06:23;1.75;;;1.35;;
65463;SDS011;52063;45.110;9.870;2023-02-27T05:09:08;1.60;;;1.40;;
65463;SDS011;52063;45.110;9.870;2023-02-27T05:14:24;1.95;;;1.40;;
65463;SDS011;52063;45.110;9.870;2023-02-27T05:19:26;2.35;;;1.40;;
65463;SDS011;52063;45.110;9.870;2023-02-27T05:22:35;1.90;;;1.50;;
65463;SDS011;52063;45.110;9.870;2023-02-27T05:27:51;1.60;;;1.20;;
65463;SDS011;52063;45.110;9.870;2023-02-27T05:33:10;1.30;;;1.17;;
65463;SDS011;52063;45.110;9.870;2023-02-27T05:35:47;2.22;;;1.10;;
65463;SDS011;52063;45.110;9.870;2023-02-27T05:40:47;3.60;;;1.20;;
65463;SDS011;52063;45.110;9.870;2023-02-27T05:45:45;2.90;;;1.30;;
65463;SDS011;52063;45.110;9.870;2023-02-27T05:48:13;2.50;;;1.50;;
65463;SDS011;52063;45.110;9.870;2023-02-27T05:50:42;4.03;;;1.98;;
65463;SDS011;52063;45.110;9.870;2023-02-27T05:53:10;1.97;;;1.40;;
65463;SDS011;52063;45.110;9.870;2023-02-27T05:55:43;2.05;;;1.30;;
65463;SDS011;52063;45.110;9.870;2023-02-27T06:00:47;2.50;;;1.40;;
65463;SDS011;52063;45.110;9.870;2023-02-27T06:03:15;1.70;;;1.50;;
65463;SDS011;52063;45.110;9.870;2023-02-27T06:05:41;1.60;;;1.30;;
65463;SDS011;52063;45.110;9.870;2023-02-27T06:08:07;4.63;;;1.30;;
65463;SDS011;52063;45.110;9.870;2023-02-27T06:10:32;2.47;;;1.20;;
65463;SDS011;52063;45.110;9.870;2023-02-27T06:12:58;2.15;;;1.30;;
65463;SDS011;52063;45.110;9.870;2023-02-27T06:15:24;1.93;;;1.50;;
65463;SDS011;52063;45.110;9.870;2023-02-27T06:17:49;1.85;;;1.38;;
65463;SDS011;52063;45.110;9.870;2023-02-27T06:20:14;1.60;;;1.50;;
65463;SDS011;52063;45.110;9.870;2023-02-27T06:22:40;3.43;;;1.17;;
65463;SDS011;52063;45.110;9.870;2023-02-27T06:25:06;1.63;;;1.20;;
65463;SDS011;52063;45.110;9.870;2023-02-27T06:27:31;1.90;;;1.47;;
65463;SDS011;52063;45.110;9.870;2023-02-27T06:29:57;2.65;;;1.27;;
65463;SDS011;52063;45.110;9.870;2023-02-27T06:32:22;2.80;;;1.10;;
65463;SDS011;52063;45.110;9.870;2023-02-27T06:34:50;1.50;;;1.30;;
65463;SDS011;52063;45.110;9.870;2023-02-27T06:37:16;2.80;;;1.50;;
65463;SDS011;52063;45.110;9.870;2023-02-27T06:39:41;1.40;;;1.30;;
65463;SDS011;52063;45.110;9.870;2023-02-27T06:42:07;1.43;;;1.20;;
65463;SDS011;52063;45.110;9.870;2023-02-27T06:44:32;1.80;;;1.30;;
65463;SDS011;52063;45.110;9.870;2023-02-27T06:46:57;1.37;;;1.13;;
65463;SDS011;52063;45.110;9.870;2023-02-27T06:49:23;1.63;;;1.30;;
65463;SDS011;52063;45.110;9.870;2023-02-27T06:51:48;1.30;;;1.00;;
65463;SDS011;52063;45.110;9.870;2023-02-27T06:54:14;1.45;;;1.00;;
65463;SDS011;52063;45.110;9.870;2023-02-27T06:56:39;1.40;;;1.30;;
65463;SDS011;52063;45.110;9.870;2023-02-27T06:59:05;2.27;;;1.00;;
65463;SDS011;52063;45.110;9.870;2023-02-27T07:01:30;1.23;;;1.13;;
65463;SDS011;52063;45.110;9.870;2023-02-27T07:03:56;1.70;;;1.48;;
65463;SDS011;52063;45.110;9.870;2023-02-27T07:06:21;1.50;;;1.03;;
65463;SDS011;52063;45.110;9.870;2023-02-27T07:08:46;1.33;;;1.10;;
65463;SDS011;52063;45.110;9.870;2023-02-27T07:11:12;1.50;;;1.27;;
65463;SDS011;52063;45.110;9.870;2023-02-27T07:13:37;1.50;;;1.40;;
65463;SDS011;52063;45.110;9.870;2023-02-27T07:16:03;1.60;;;1.20;;
65463;SDS011;52063;45.110;9.870;2023-02-27T07:18:29;1.70;;;1.35;;
65463;SDS011;52063;45.110;9.870;2023-02-27T07:20:54;1.83;;;1.30;;
65463;SDS011;52063;45.110;9.870;2023-02-27T07:23:21;2.23;;;1.43;;
65463;SDS011;52063;45.110;9.870;2023-02-27T07:25:47;2.08;;;1.33;;
65463;SDS011;52063;45.110;9.870;2023-02-27T07:28:12;1.90;;;1.50;;
65463;SDS011;52063;45.110;9.870;2023-02-27T07:30:38;1.67;;;1.50;;
65463;SDS011;52063;45.110;9.870;2023-02-27T07:33:04;1.10;;;1.00;;
65463;SDS011;52063;45.110;9.870;2023-02-27T07:35:30;1.58;;;1.10;;
65463;SDS011;52063;45.110;9.870;2023-02-27T07:37:56;1.30;;;1.17;;
65463;SDS011;52063;45.110;9.870;2023-02-27T07:40:21;2.70;;;1.10;;
65463;SDS011;52063;45.110;9.870;2023-02-27T07:42:47;6.77;;;1.40;;
65463;SDS011;52063;45.110;9.870;2023-02-27T07:45:14;2.50;;;1.02;;
65463;SDS011;52063;45.110;9.870;2023-02-27T07:47:42;3.72;;;1.30;;
65463;SDS011;52063;45.110;9.870;2023-02-27T07:50:11;2.10;;;1.90;;
65463;SDS011;52063;45.110;9.870;2023-02-27T07:52:39;2.10;;;1.90;;
65463;SDS011;52063;45.110;9.870;2023-02-27T07:55:05;4.68;;;2.20;;
65463;SDS011;52063;45.110;9.870;2023-02-27T07:57:32;3.42;;;2.00;;
65463;SDS011;52063;45.110;9.870;2023-02-27T07:59:57;1.57;;;1.47;;
65463;SDS011;52063;45.110;9.870;2023-02-27T08:02:23;5.43;;;1.85;;
65463;SDS011;52063;45.110;9.870;2023-02-27T08:04:48;4.23;;;1.80;;
65463;SDS011;52063;45.110;9.870;2023-02-27T08:07:15;2.95;;;1.70;;
65463;SDS011;52063;45.110;9.870;2023-02-27T08:09:41;5.10;;;1.70;;
65463;SDS011;52063;45.110;9.870;2023-02-27T08:12:06;2.58;;;1.40;;
65463;SDS011;52063;45.110;9.870;2023-02-27T08:14:32;1.80;;;1.47;;
65463;SDS011;52063;45.110;9.870;2023-02-27T08:16:57;1.90;;;1.60;;
65463;SDS011;52063;45.110;9.870;2023-02-27T08:19:24;3.17;;;1.50;;
65463;SDS011;52063;45.110;9.870;2023-02-27T08:21:50;3.58;;;1.50;;
65463;SDS011;52063;45.110;9.870;2023-02-27T08:24:15;3.83;;;1.60;;
65463;SDS011;52063;45.110;9.870;2023-02-27T08:26:41;3.07;;;1.37;;
65463;SDS011;52063;45.110;9.870;2023-02-27T08:29:06;2.53;;;1.50;;
65463;SDS011;52063;45.110;9.870;2023-02-27T08:31:32;1.85;;;1.50;;
65463;SDS011;52063;45.110;9.870;2023-02-27T08:33:57;2.77;;;1.40;;
65463;SDS011;52063;45.110;9.870;2023-02-27T08:36:22;1.53;;;1.33;;
65463;SDS011;52063;45.110;9.870;2023-02-27T08:38:48;1.67;;;1.50;;
65463;SDS011;52063;45.110;9.870;2023-02-27T08:41:13;2.20;;;1.40;;
65463;SDS011;52063;45.110;9.870;2023-02-27T08:43:39;3.30;;;1.27;;
65463;SDS011;52063;45.110;9.870;2023-02-27T08:46:04;3.17;;;1.50;;
65463;SDS011;52063;45.110;9.870;2023-02-27T08:48:30;2.10;;;1.30;;
65463;SDS011;52063;45.110;9.870;2023-02-27T08:50:55;2.67;;;1.40;;
65463;SDS011;52063;45.110;9.870;2023-02-27T08:53:21;2.83;;;1.23;;
65463;SDS011;52063;45.110;9.870;2023-02-27T08:55:49;2.00;;;1.25;;
65463;SDS011;52063;45.110;9.870;2023-02-27T08:58:15;1.93;;;1.50;;
65463;SDS011;52063;45.110;9.870;2023-02-27T09:00:41;2.38;;;1.50;;
65463;SDS011;52063;45.110;9.870;2023-02-27T09:03:07;3.13;;;1.60;;
65463;SDS011;52063;45.110;9.870;2023-02-27T09:05:32;2.05;;;1.33;;
65463;SDS011;52063;45.110;9.870;2023-02-27T09:08:02;2.40;;;1.20;;
65463;SDS011;52063;45.110;9.870;2023-02-27T09:10:28;2.60;;;1.20;;
65463;SDS011;52063;45.110;9.870;2023-02-27T09:12:54;2.10;;;1.40;;
65463;SDS011;52063;45.110;9.870;2023-02-27T09:15:20;2.87;;;1.60;;
65463;SDS011;52063;45.110;9.870;2023-02-27T09:17:45;1.70;;;1.20;;
65463;SDS011;52063;45.110;9.870;2023-02-27T09:20:11;2.60;;;1.40;;
65463;SDS011;52063;45.110;9.870;2023-02-27T09:22:37;2.40;;;1.48;;
65463;SDS011;52063;45.110;9.870;2023-02-27T09:25:03;1.80;;;1.30;;
65463;SDS011;52063;45.110;9.870;2023-02-27T09:27:28;3.20;;;1.45;;
65463;SDS011;52063;45.110;9.870;2023-02-27T09:29:54;1.37;;;1.10;;
65463;SDS011;52063;45.110;9.870;2023-02-27T09:32:21;3.20;;;1.33;;
65463;SDS011;52063;45.110;9.870;2023-02-27T09:34:47;2.92;;;1.10;;
65463;SDS011;52063;45.110;9.870;2023-02-27T09:37:12;1.73;;;1.00;;
65463;SDS011;52063;45.110;9.870;2023-02-27T09:39:39;1.58;;;1.10;;
65463;SDS011;52063;45.110;9.870;2023-02-27T09:42:05;2.03;;;1.07;;
65463;SDS011;52063;45.110;9.870;2023-02-27T09:44:40;3.28;;;1.08;;
65463;SDS011;52063;45.110;9.870;2023-02-27T09:47:11;1.70;;;1.10;;
65463;SDS011;52063;45.110;9.870;2023-02-27T09:49:51;1.77;;;1.17;;
65463;SDS011;52063;45.110;9.870;2023-02-27T09:52:21;2.67;;;1.40;;
65463;SDS011;52063;45.110;9.870;2023-02-27T09:54:47;2.07;;;1.03;;
65463;SDS011;52063;45.110;9.870;2023-02-27T09:57:14;1.60;;;1.23;;
65463;SDS011;52063;45.110;9.870;2023-02-27T09:59:44;1.10;;;1.00;;
65463;SDS011;52063;45.110;9.870;2023-02-27T10:05:14;1.55;;;1.20;;
65463;SDS011;52063;45.110;9.870;2023-02-27T10:07:57;1.50;;;0.90;;
65463;SDS011;52063;45.110;9.870;2023-02-27T10:15:30;1.33;;;1.02;;
65463;SDS011;52063;45.110;9.870;2023-02-27T10:18:01;1.40;;;1.10;;
65463;SDS011;52063;45.110;9.870;2023-02-27T10:20:36;2.10;;;1.10;;
65463;SDS011;52063;45.110;9.870;2023-02-27T10:23:15;2.50;;;1.10;;
65463;SDS011;52063;45.110;9.870;2023-02-27T10:25:43;1.37;;;1.00;;
65463;SDS011;52063;45.110;9.870;2023-02-27T10:28:12;3.00;;;1.00;;
65463;SDS011;52063;45.110;9.870;2023-02-27T10:30:38;2.65;;;1.35;;
65463;SDS011;52063;45.110;9.870;2023-02-27T10:33:08;2.00;;;1.27;;
65463;SDS011;52063;45.110;9.870;2023-02-27T10:35:38;1.50;;;1.20;;
65463;SDS011;52063;45.110;9.870;2023-02-27T10:38:16;1.73;;;1.00;;
65463;SDS011;52063;45.110;9.870;2023-02-27T10:40:55;1.55;;;1.25;;
65463;SDS011;52063;45.110;9.870;2023-02-27T10:43:22;2.22;;;0.95;;
65463;SDS011;52063;45.110;9.870;2023-02-27T10:45:47;1.20;;;0.90;;
65463;SDS011;52063;45.110;9.870;2023-02-27T10:48:13;1.55;;;1.00;;
65463;SDS011;52063;45.110;9.870;2023-02-27T10:50:43;1.43;;;1.10;;
65463;SDS011;52063;45.110;9.870;2023-02-27T10:53:17;1.25;;;1.00;;
65463;SDS011;52063;45.110;9.870;2023-02-27T10:55:47;1.40;;;0.88;;
65463;SDS011;52063;45.110;9.870;2023-02-27T10:58:22;1.58;;;0.90;;
65463;SDS011;52063;45.110;9.870;2023-02-27T11:00:55;1.40;;;1.20;;
65463;SDS011;52063;45.110;9.870;2023-02-27T11:03:25;1.00;;;0.90;;
65463;SDS011;52063;45.110;9.870;2023-02-27T11:06:41;1.10;;;0.90;;
65463;SDS011;52063;45.110;9.870;2023-02-27T11:11:53;1.30;;;1.02;;
65463;SDS011;52063;45.110;9.870;2023-02-27T11:14:27;1.42;;;0.90;;
65463;SDS011;52063;45.110;9.870;2023-02-27T11:16:55;1.50;;;0.70;;
65463;SDS011;52063;45.110;9.870;2023-02-27T11:19:35;1.30;;;1.10;;
65463;SDS011;52063;45.110;9.870;2023-02-27T11:24:30;2.08;;;1.20;;
65463;SDS011;52063;45.110;9.870;2023-02-27T11:26:57;1.00;;;0.90;;
65463;SDS011;52063;45.110;9.870;2023-02-27T11:29:25;1.20;;;0.90;;
65463;SDS011;52063;45.110;9.870;2023-02-27T11:32:04;1.10;;;0.90;;
65463;SDS011;52063;45.110;9.870;2023-02-27T11:34:39;1.90;;;0.82;;
65463;SDS011;52063;45.110;9.870;2023-02-27T11:37:23;1.35;;;0.90;;
65463;SDS011;52063;45.110;9.870;2023-02-27T11:39:51;1.40;;;1.00;;
65463;SDS011;52063;45.110;9.870;2023-02-27T11:42:28;1.10;;;0.90;;
65463;SDS011;52063;45.110;9.870;2023-02-27T11:44:56;2.40;;;0.90;;
65463;SDS011;52063;45.110;9.870;2023-02-27T11:47:43;1.30;;;0.98;;
65463;SDS011;52063;45.110;9.870;2023-02-27T11:50:19;1.20;;;1.00;;
65463;SDS011;52063;45.110;9.870;2023-02-27T11:53:06;1.57;;;1.00;;
65463;SDS011;52063;45.110;9.870;2023-02-27T11:55:39;1.15;;;1.00;;
65463;SDS011;52063;45.110;9.870;2023-02-27T11:58:24;1.50;;;0.95;;
65463;SDS011;52063;45.110;9.870;2023-02-27T12:01:00;1.00;;;0.90;;
65463;SDS011;52063;45.110;9.870;2023-02-27T12:03:37;1.53;;;1.10;;
65463;SDS011;52063;45.110;9.870;2023-02-27T12:12:04;1.20;;;0.95;;
65463;SDS011;52063;45.110;9.870;2023-02-27T12:14:45;1.85;;;0.82;;
65463;SDS011;52063;45.110;9.870;2023-02-27T12:22:54;1.45;;;0.93;;
65463;SDS011;52063;45.110;9.870;2023-02-27T12:30:43;1.17;;;1.05;;
65463;SDS011;52063;45.110;9.870;2023-02-27T12:36:12;1.00;;;0.90;;
65463;SDS011;52063;45.110;9.870;2023-02-27T12:38:38;1.07;;;0.90;;
65463;SDS011;52063;45.110;9.870;2023-02-27T12:43:46;1.70;;;1.20;;
65463;SDS011;52063;45.110;9.870;2023-02-27T12:46:19;1.30;;;1.00;;
65463;SDS011;52063;45.110;9.870;2023-02-27T12:49:09;1.02;;;0.80;;
65463;SDS011;52063;45.110;9.870;2023-02-27T12:51:49;1.17;;;1.08;;
65463;SDS011;52063;45.110;9.870;2023-02-27T12:57:17;1.20;;;1.08;;
65463;SDS011;52063;45.110;9.870;2023-02-27T12:59:52;1.30;;;1.00;;
65463;SDS011;52063;45.110;9.870;2023-02-27T13:08:02;1.55;;;0.80;;
65463;SDS011;52063;45.110;9.870;2023-02-27T13:15:57;1.95;;;1.10;;
65463;SDS011;52063;45.110;9.870;2023-02-27T13:21:07;1.65;;;0.98;;
65463;SDS011;52063;45.110;9.870;2023-02-27T13:26:16;1.30;;;1.03;;
65463;SDS011;52063;45.110;9.870;2023-02-27T13:28:45;1.02;;;0.93;;
65463;SDS011;52063;45.110;9.870;2023-02-27T13:34:03;1.00;;;0.80;;
65463;SDS011;52063;45.110;9.870;2023-02-27T13:49:53;1.57;;;0.80;;
65463;SDS011;52063;45.110;9.870;2023-02-27T13:52:31;0.95;;;0.80;;
65463;SDS011;52063;45.110;9.870;2023-02-27T13:54:58;1.60;;;0.60;;
65463;SDS011;52063;45.110;9.870;2023-02-27T13:57:28;1.00;;;0.70;;
65463;SDS011;52063;45.110;9.870;2023-02-27T14:00:00;1.27;;;1.17;;
65463;SDS011;52063;45.110;9.870;2023-02-27T14:02:32;1.23;;;1.00;;
65463;SDS011;52063;45.110;9.870;2023-02-27T14:05:00;1.10;;;1.00;;
65463;SDS011;52063;45.110;9.870;2023-02-27T14:07:30;1.52;;;0.80;;
65463;SDS011;52063;45.110;9.870;2023-02-27T14:10:02;1.05;;;0.95;;
65463;SDS011;52063;45.110;9.870;2023-02-27T14:12:33;2.67;;;0.90;;
65463;SDS011;52063;45.110;9.870;2023-02-27T14:15:01;1.47;;;0.80;;
65463;SDS011;52063;45.110;9.870;2023-02-27T14:20:01;1.65;;;0.88;;
65463;SDS011;52063;45.110;9.870;2023-02-27T14:22:33;1.48;;;1.05;;
65463;SDS011;52063;45.110;9.870;2023-02-27T14:27:55;2.97;;;0.83;;
65463;SDS011;52063;45.110;9.870;2023-02-27T14:30:32;1.08;;;0.63;;
65463;SDS011;52063;45.110;9.870;2023-02-27T14:35:43;1.65;;;1.00;;
65463;SDS011;52063;45.110;9.870;2023-02-27T14:38:10;1.15;;;1.05;;
65463;SDS011;52063;45.110;9.870;2023-02-27T14:40:39;0.80;;;0.70;;
65463;SDS011;52063;45.110;9.870;2023-02-27T14:43:14;1.42;;;0.77;;
65463;SDS011;52063;45.110;9.870;2023-02-27T14:46:04;3.03;;;1.00;;
65463;SDS011;52063;45.110;9.870;2023-02-27T14:48:31;1.25;;;1.00;;
65463;SDS011;52063;45.110;9.870;2023-02-27T14:50:56;1.17;;;1.00;;
65463;SDS011;52063;45.110;9.870;2023-02-27T14:53:24;1.40;;;1.00;;
65463;SDS011;52063;45.110;9.870;2023-02-27T14:55:54;1.00;;;0.85;;
65463;SDS011;52063;45.110;9.870;2023-02-27T14:58:21;0.98;;;0.90;;
65463;SDS011;52063;45.110;9.870;2023-02-27T15:03:34;1.05;;;0.63;;
65463;SDS011;52063;45.110;9.870;2023-02-27T15:06:16;2.08;;;0.90;;
65463;SDS011;52063;45.110;9.870;2023-02-27T15:08:45;1.10;;;0.90;;
65463;SDS011;52063;45.110;9.870;2023-02-27T15:11:14;2.05;;;0.70;;
65463;SDS011;52063;45.110;9.870;2023-02-27T15:13:40;1.20;;;0.70;;
65463;SDS011;52063;45.110;9.870;2023-02-27T15:16:25;1.23;;;0.77;;
65463;SDS011;52063;45.110;9.870;2023-02-27T15:19:09;1.00;;;0.80;;
65463;SDS011;52063;45.110;9.870;2023-02-27T15:21:39;1.58;;;0.73;;
65463;SDS011;52063;45.110;9.870;2023-02-27T15:24:06;1.27;;;0.90;;
65463;SDS011;52063;45.110;9.870;2023-02-27T15:26:42;1.23;;;0.80;;
65463;SDS011;52063;45.110;9.870;2023-02-27T15:29:13;1.00;;;0.80;;
65463;SDS011;52063;45.110;9.870;2023-02-27T15:31:44;0.93;;;0.75;;
65463;SDS011;52063;45.110;9.870;2023-02-27T15:34:10;1.40;;;0.77;;
65463;SDS011;52063;45.110;9.870;2023-02-27T15:36:38;1.08;;;0.80;;
65463;SDS011;52063;45.110;9.870;2023-02-27T15:39:17;1.10;;;0.77;;
65463;SDS011;52063;45.110;9.870;2023-02-27T15:41:46;0.82;;;0.75;;
65463;SDS011;52063;45.110;9.870;2023-02-27T15:44:14;1.33;;;0.77;;
65463;SDS011;52063;45.110;9.870;2023-02-27T15:46:41;2.38;;;0.90;;
65463;SDS011;52063;45.110;9.870;2023-02-27T15:49:12;1.92;;;1.00;;
65463;SDS011;52063;45.110;9.870;2023-02-27T15:51:39;1.90;;;0.87;;
65463;SDS011;52063;45.110;9.870;2023-02-27T15:54:05;1.17;;;0.60;;
65463;SDS011;52063;45.110;9.870;2023-02-27T15:56:33;0.80;;;0.60;;
65463;SDS011;52063;45.110;9.870;2023-02-27T15:58:59;1.37;;;0.90;;
65463;SDS011;52063;45.110;9.870;2023-02-27T16:01:26;0.95;;;0.88;;
65463;SDS011;52063;45.110;9.870;2023-02-27T16:04:00;1.00;;;0.90;;
65463;SDS011;52063;45.110;9.870;2023-02-27T16:06:28;1.20;;;0.80;;
65463;SDS011;52063;45.110;9.870;2023-02-27T16:11:20;1.23;;;0.90;;
65463;SDS011;52063;45.110;9.870;2023-02-27T16:13:48;0.80;;;0.70;;
65463;SDS011;52063;45.110;9.870;2023-02-27T16:18:49;1.20;;;0.82;;
65463;SDS011;52063;45.110;9.870;2023-02-27T16:21:20;0.95;;;0.75;;
65463;SDS011;52063;45.110;9.870;2023-02-27T16:23:46;1.40;;;0.75;;
65463;SDS011;52063;45.110;9.870;2023-02-27T16:28:51;1.77;;;0.90;;
65463;SDS011;52063;45.110;9.870;2023-02-27T16:31:21;1.00;;;0.80;;
65463;SDS011;52063;45.110;9.870;2023-02-27T16:33:49;1.00;;;0.75;;
65463;SDS011;52063;45.110;9.870;2023-02-27T16:36:22;0.90;;;0.70;;
65463;SDS011;52063;45.110;9.870;2023-02-27T16:38:48;1.00;;;0.67;;
65463;SDS011;52063;45.110;9.870;2023-02-27T16:41:14;1.13;;;0.70;;
65463;SDS011;52063;45.110;9.870;2023-02-27T16:43:41;1.00;;;0.70;;
65463;SDS011;52063;45.110;9.870;2023-02-27T16:46:09;1.05;;;0.70;;
65463;SDS011;52063;45.110;9.870;2023-02-27T16:48:35;1.10;;;0.80;;
65463;SDS011;52063;45.110;9.870;2023-02-27T16:51:00;0.90;;;0.63;;
65463;SDS011;52063;45.110;9.870;2023-02-27T16:53:26;1.10;;;0.90;;
65463;SDS011;52063;45.110;9.870;2023-02-27T16:55:51;1.40;;;0.75;;
65463;SDS011;52063;45.110;9.870;2023-02-27T16:58:19;1.02;;;0.90;;
65463;SDS011;52063;45.110;9.870;2023-02-27T17:00:45;1.30;;;1.00;;
65463;SDS011;52063;45.110;9.870;2023-02-27T17:03:11;0.98;;;0.50;;
65463;SDS011;52063;45.110;9.870;2023-02-27T17:05:36;0.93;;;0.70;;
65463;SDS011;52063;45.110;9.870;2023-02-27T17:08:02;1.03;;;0.80;;
65463;SDS011;52063;45.110;9.870;2023-02-27T17:10:27;1.02;;;0.90;;
65463;SDS011;52063;45.110;9.870;2023-02-27T17:12:53;0.90;;;0.70;;
65463;SDS011;52063;45.110;9.870;2023-02-27T17:15:19;1.20;;;0.87;;
65463;SDS011;52063;45.110;9.870;2023-02-27T17:17:44;1.63;;;0.95;;
65463;SDS011;52063;45.110;9.870;2023-02-27T17:20:10;1.00;;;0.80;;
65463;SDS011;52063;45.110;9.870;2023-02-27T17:22:37;1.00;;;0.80;;
65463;SDS011;52063;45.110;9.870;2023-02-27T17:25:04;2.15;;;0.73;;
65463;SDS011;52063;45.110;9.870;2023-02-27T17:27:30;1.52;;;0.80;;
65463;SDS011;52063;45.110;9.870;2023-02-27T17:29:56;1.20;;;0.60;;
65463;SDS011;52063;45.110;9.870;2023-02-27T17:32:21;1.00;;;0.70;;
65463;SDS011;52063;45.110;9.870;2023-02-27T17:34:47;1.33;;;0.68;;
65463;SDS011;52063;45.110;9.870;2023-02-27T17:37:12;1.00;;;0.70;;
65463;SDS011;52063;45.110;9.870;2023-02-27T17:39:37;1.30;;;1.00;;
65463;SDS011;52063;45.110;9.870;2023-02-27T17:42:03;1.50;;;0.70;;
65463;SDS011;52063;45.110;9.870;2023-02-27T17:44:28;1.15;;;0.88;;